Time;durP1;ratioP1;P1;durP2;ratioP2;P2;SDS_P1;SDS_P2;PMS_P1;PMS_P2;Temp;Humidity;BMP_temperature;BMP_pressure;BME280_temperature;BME280_humidity;BME280_pressure;Samples;Min_cycle;Max_cycle;Signal;HPM_P1;HPM_P2
2021/10/16 00:01:22;;;;;;;8.63;6.15;;;9.10;75.40;;;;;;4959302;28;20469;-66
2021/10/16 00:03:48;;;;;;;11.05;6.40;;;9.10;75.30;;;;;;4961770;28;20051;-65
2021/10/16 00:06:14;;;;;;;9.05;6.70;;;9.10;75.30;;;;;;4955769;28;20477;-66
2021/10/16 00:08:39;;;;;;;8.38;6.38;;;9.00;75.30;;;;;;4954096;28;20035;-65
2021/10/16 00:11:06;;;;;;;10.07;7.22;;;9.00;75.30;;;;;;4952654;28;20090;-65
2021/10/16 00:13:32;;;;;;;9.50;6.90;;;9.00;75.40;;;;;;4956472;28;20032;-66
2021/10/16 00:15:57;;;;;;;9.60;6.63;;;8.90;75.40;;;;;;4956781;28;20038;-66
2021/10/16 00:18:23;;;;;;;8.70;6.55;;;8.90;75.40;;;;;;4953797;28;20058;-67
2021/10/16 00:20:49;;;;;;;12.30;6.97;;;8.90;75.40;;;;;;4956777;28;20043;-66
2021/10/16 00:23:15;;;;;;;9.88;6.80;;;8.90;75.40;;;;;;4955124;28;20042;-66
2021/10/16 00:25:41;;;;;;;10.13;6.60;;;8.80;75.40;;;;;;4958931;28;20110;-66
2021/10/16 00:28:07;;;;;;;9.65;6.70;;;8.80;75.40;;;;;;4959448;28;20030;-66
2021/10/16 00:30:32;;;;;;;8.90;6.70;;;8.80;75.40;;;;;;4959514;28;20067;-66
2021/10/16 00:32:58;;;;;;;10.38;6.90;;;8.80;75.50;;;;;;4959693;28;20414;-66
2021/10/16 00:35:24;;;;;;;7.63;6.13;;;8.70;75.40;;;;;;4963485;28;20034;-66
2021/10/16 00:37:49;;;;;;;7.97;6.35;;;8.80;75.50;;;;;;4959862;28;20027;-66
2021/10/16 00:40:15;;;;;;;8.50;6.03;;;8.70;75.40;;;;;;4960651;28;20074;-66
2021/10/16 00:42:49;;;;;;;10.00;6.50;;;8.70;75.50;;;;;;4959579;28;20043;-66
2021/10/16 00:45:15;;;;;;;7.38;6.00;;;8.70;75.60;;;;;;4957493;28;20487;-66
2021/10/16 00:47:44;;;;;;;9.70;5.68;;;8.70;75.40;;;;;;4959468;28;20035;-66
2021/10/16 00:50:10;;;;;;;6.38;5.28;;;8.60;75.30;;;;;;4961225;28;20023;-66
2021/10/16 00:52:38;;;;;;;6.78;5.30;;;8.60;75.30;;;;;;4957444;28;20047;-65
2021/10/16 00:55:06;;;;;;;7.63;5.60;;;8.50;75.20;;;;;;4957188;28;20042;-66
2021/10/16 00:57:32;;;;;;;7.28;5.57;;;8.50;75.30;;;;;;4956143;28;20210;-66
2021/10/16 00:59:58;;;;;;;7.05;5.55;;;8.40;75.30;;;;;;4956497;28;20126;-66
2021/10/16 01:02:23;;;;;;;6.68;5.50;;;8.40;75.30;;;;;;4962492;28;21022;-64
2021/10/16 01:04:49;;;;;;;6.85;5.15;;;8.40;75.40;;;;;;4957281;28;20031;-66
2021/10/16 01:07:15;;;;;;;6.50;5.20;;;8.40;75.30;;;;;;4957685;28;20038;-65
2021/10/16 01:09:45;;;;;;;6.65;5.38;;;8.30;75.40;;;;;;4959982;28;20036;-66
2021/10/16 01:12:11;;;;;;;8.40;5.55;;;8.30;75.60;;;;;;4958356;28;20121;-66
2021/10/16 01:14:57;;;;;;;5.53;4.93;;;8.30;75.40;;;;;;4957797;28;20062;-65
2021/10/16 01:17:24;;;;;;;6.93;5.45;;;8.20;75.80;;;;;;4959873;28;20027;-66
2021/10/16 01:20:00;;;;;;;8.40;5.60;;;8.20;75.50;;;;;;4959760;28;20451;-66
2021/10/16 01:22:27;;;;;;;7.07;5.60;;;8.20;75.80;;;;;;4961509;28;20881;-65
2021/10/16 01:24:53;;;;;;;6.95;5.40;;;8.10;75.80;;;;;;4960344;28;20034;-66
2021/10/16 01:27:19;;;;;;;6.63;5.43;;;8.10;76.10;;;;;;4958973;28;20109;-66
2021/10/16 01:29:46;;;;;;;7.78;5.25;;;8.10;76.30;;;;;;4961749;28;20031;-66
2021/10/16 01:32:13;;;;;;;9.98;6.05;;;8.10;76.50;;;;;;4959597;28;20070;-66
2021/10/16 01:34:38;;;;;;;7.28;5.97;;;8.10;76.70;;;;;;4956812;28;20049;-67
2021/10/16 01:37:04;;;;;;;7.20;5.90;;;8.10;76.70;;;;;;4958033;28;20503;-66
2021/10/16 01:39:30;;;;;;;6.50;5.43;;;8.20;76.90;;;;;;4971613;28;20042;-66
2021/10/16 01:41:57;;;;;;;6.72;5.78;;;8.20;77.00;;;;;;4958638;28;20035;-66
2021/10/16 01:44:23;;;;;;;8.18;6.43;;;8.20;77.00;;;;;;4958288;28;20050;-68
2021/10/16 01:46:49;;;;;;;8.57;6.38;;;8.20;76.90;;;;;;4957134;28;20518;-66
2021/10/16 01:49:16;;;;;;;8.38;6.28;;;8.20;77.00;;;;;;4958982;28;20031;-67
2021/10/16 01:51:43;;;;;;;7.93;6.00;;;8.20;77.10;;;;;;4956636;28;20040;-64
2021/10/16 01:54:09;;;;;;;8.38;6.30;;;8.20;77.20;;;;;;4957509;28;20094;-66
2021/10/16 01:56:35;;;;;;;8.63;6.13;;;8.20;77.20;;;;;;4955900;28;20034;-65
2021/10/16 01:59:18;;;;;;;8.57;6.43;;;8.20;77.30;;;;;;4957678;28;20548;-66
2021/10/16 02:01:44;;;;;;;10.10;7.03;;;8.20;77.80;;;;;;4955802;28;20043;-66
2021/10/16 02:04:11;;;;;;;8.95;6.47;;;8.20;77.40;;;;;;4959187;28;20065;-66
2021/10/16 02:06:37;;;;;;;8.02;6.30;;;8.20;77.70;;;;;;4958732;28;20529;-66
2021/10/16 02:09:04;;;;;;;10.38;6.90;;;8.20;77.70;;;;;;4957502;28;20043;-65
2021/10/16 02:11:31;;;;;;;8.93;6.60;;;8.20;77.90;;;;;;4956032;28;20047;-66
2021/10/16 02:13:57;;;;;;;8.65;5.95;;;8.20;77.90;;;;;;4956331;28;20414;-66
2021/10/16 02:16:23;;;;;;;9.45;6.28;;;8.20;78.00;;;;;;4958667;28;20041;-66
2021/10/16 02:18:48;;;;;;;8.73;6.78;;;8.30;78.10;;;;;;4958409;28;20034;-66
2021/10/16 02:21:14;;;;;;;8.57;6.40;;;8.30;78.00;;;;;;4959252;28;20042;-66
2021/10/16 02:23:40;;;;;;;7.15;6.13;;;8.30;78.00;;;;;;4959643;28;20042;-66
2021/10/16 02:26:05;;;;;;;9.48;6.63;;;8.30;77.80;;;;;;4957242;28;20169;-66
2021/10/16 02:28:31;;;;;;;8.32;6.35;;;8.40;77.80;;;;;;4955629;28;20039;-66
2021/10/16 02:30:57;;;;;;;8.57;6.20;;;8.40;77.70;;;;;;4958345;28;20039;-66
2021/10/16 02:33:22;;;;;;;9.98;6.38;;;8.40;77.50;;;;;;4957279;28;20057;-66
2021/10/16 02:35:48;;;;;;;7.82;6.10;;;8.50;77.50;;;;;;4957492;28;20034;-66
2021/10/16 02:38:13;;;;;;;8.80;6.35;;;8.50;77.50;;;;;;4957500;28;20101;-67
2021/10/16 02:40:39;;;;;;;7.43;5.80;;;8.50;77.40;;;;;;4955964;28;20042;-66
2021/10/16 02:43:05;;;;;;;7.93;5.72;;;8.60;77.40;;;;;;4956938;28;20393;-66
2021/10/16 02:45:31;;;;;;;8.70;6.10;;;8.60;77.50;;;;;;4955060;28;20040;-66
2021/10/16 02:47:57;;;;;;;8.57;5.68;;;8.60;77.40;;;;;;4958663;28;20027;-66
2021/10/16 02:50:23;;;;;;;7.38;6.05;;;8.60;77.20;;;;;;4956190;28;20888;-67
2021/10/16 02:52:48;;;;;;;8.55;5.88;;;8.60;77.20;;;;;;4953855;28;20046;-66
2021/10/16 02:55:16;;;;;;;7.97;5.72;;;8.60;77.10;;;;;;4954845;28;20558;-66
2021/10/16 02:57:42;;;;;;;7.55;5.85;;;8.60;77.00;;;;;;4956583;28;20043;-66
2021/10/16 03:00:08;;;;;;;7.88;5.65;;;8.60;77.00;;;;;;4958986;28;20054;-66
2021/10/16 03:02:34;;;;;;;8.73;5.82;;;8.60;77.90;;;;;;4957289;28;20035;-66
2021/10/16 03:05:00;;;;;;;6.65;5.47;;;8.60;76.90;;;;;;4956042;28;20690;-66
2021/10/16 03:07:26;;;;;;;7.20;6.05;;;8.60;76.80;;;;;;4956963;28;20033;-67
2021/10/16 03:09:52;;;;;;;7.70;5.80;;;8.60;76.80;;;;;;4957700;28;20032;-66
2021/10/16 03:12:17;;;;;;;8.13;5.50;;;8.60;76.90;;;;;;4955248;28;20713;-66
2021/10/16 03:14:43;;;;;;;7.55;6.03;;;8.50;76.90;;;;;;4954601;28;20121;-65
2021/10/16 03:17:08;;;;;;;7.75;5.97;;;8.60;77.00;;;;;;4956532;28;20038;-65
2021/10/16 03:19:34;;;;;;;8.38;6.35;;;8.50;77.00;;;;;;4956189;28;20031;-66
2021/10/16 03:22:00;;;;;;;7.97;6.05;;;8.50;77.00;;;;;;4956008;28;20594;-65
2021/10/16 03:24:25;;;;;;;7.47;5.80;;;8.50;77.00;;;;;;4955910;28;20041;-66
2021/10/16 03:26:51;;;;;;;8.50;5.78;;;8.50;77.20;;;;;;4957392;28;20039;-66
2021/10/16 03:29:17;;;;;;;7.25;5.72;;;8.50;77.40;;;;;;4954312;28;20077;-66
2021/10/16 03:31:42;;;;;;;8.27;5.47;;;8.50;77.40;;;;;;4958895;28;20130;-66
2021/10/16 03:34:08;;;;;;;7.50;5.90;;;8.50;77.50;;;;;;4954761;28;20039;-65
2021/10/16 03:36:34;;;;;;;6.88;6.03;;;8.50;77.50;;;;;;4958380;28;20039;-65
2021/10/16 03:39:00;;;;;;;7.85;6.05;;;8.50;77.50;;;;;;4956415;28;20149;-66
2021/10/16 03:41:26;;;;;;;8.63;6.53;;;8.50;77.30;;;;;;4956573;28;20417;-66
2021/10/16 03:43:51;;;;;;;7.57;6.25;;;8.50;77.30;;;;;;4957108;28;20034;-66
2021/10/16 03:46:17;;;;;;;6.82;5.40;;;8.60;77.30;;;;;;4954352;28;20061;-65
2021/10/16 03:48:42;;;;;;;7.00;6.30;;;8.50;77.20;;;;;;4953829;28;20039;-66
2021/10/16 03:51:09;;;;;;;9.35;6.13;;;8.60;77.20;;;;;;4958382;28;20041;-66
2021/10/16 03:53:35;;;;;;;8.00;5.95;;;8.60;77.20;;;;;;4954547;28;20129;-66
2021/10/16 03:56:00;;;;;;;8.82;6.20;;;8.60;77.10;;;;;;4956367;28;20067;-66
2021/10/16 03:58:26;;;;;;;8.00;5.55;;;8.60;77.20;;;;;;4956530;28;20031;-66
2021/10/16 04:00:53;;;;;;;6.10;5.38;;;8.60;77.00;;;;;;4958490;28;20039;-66
2021/10/16 04:03:19;;;;;;;7.40;5.50;;;8.60;77.00;;;;;;4958586;28;20129;-66
2021/10/16 04:05:45;;;;;;;6.97;5.15;;;8.60;77.00;;;;;;4958833;28;20058;-67
2021/10/16 04:08:10;;;;;;;6.40;5.45;;;8.60;76.80;;;;;;4958209;28;20035;-66
2021/10/16 04:10:36;;;;;;;7.88;5.80;;;8.60;76.80;;;;;;4959436;28;20518;-65
2021/10/16 04:13:03;;;;;;;7.85;5.38;;;8.60;76.80;;;;;;4960721;28;20495;-66
2021/10/16 04:15:28;;;;;;;6.50;5.60;;;8.60;76.60;;;;;;4958452;28;20493;-67
2021/10/16 04:17:54;;;;;;;8.82;5.30;;;8.60;76.60;;;;;;4960506;28;20537;-66
2021/10/16 04:20:21;;;;;;;7.63;5.25;;;8.60;76.80;;;;;;4961642;28;20367;-66
2021/10/16 04:22:47;;;;;;;6.53;5.25;;;8.60;76.70;;;;;;4960321;28;20046;-66
2021/10/16 04:25:13;;;;;;;6.07;5.38;;;8.60;76.60;;;;;;4961477;28;20118;-67
2021/10/16 04:27:39;;;;;;;6.75;5.43;;;8.50;76.60;;;;;;4958336;28;20039;-66
2021/10/16 04:30:06;;;;;;;7.88;5.88;;;8.50;76.60;;;;;;4958193;28;20081;-65
2021/10/16 04:32:34;;;;;;;10.60;6.00;;;8.60;76.70;;;;;;4957675;28;20039;-66
2021/10/16 04:35:00;;;;;;;7.72;5.97;;;8.50;76.50;;;;;;4961687;28;20114;-66
2021/10/16 04:37:26;;;;;;;7.63;5.95;;;8.50;76.50;;;;;;4959751;28;20031;-64
2021/10/16 04:39:52;;;;;;;6.47;5.72;;;8.50;76.60;;;;;;4959145;28;20394;-66
2021/10/16 04:42:18;;;;;;;7.38;5.47;;;8.40;76.50;;;;;;4959039;28;20537;-66
2021/10/16 04:44:44;;;;;;;6.20;5.30;;;8.40;76.50;;;;;;4960211;28;20058;-66
2021/10/16 04:47:09;;;;;;;10.95;6.32;;;8.40;76.50;;;;;;4958373;28;20121;-66
2021/10/16 04:49:36;;;;;;;9.02;5.90;;;8.30;76.40;;;;;;4963723;28;20042;-66
2021/10/16 04:52:06;;;;;;;8.35;5.43;;;8.30;76.30;;;;;;4958845;28;20038;-66
2021/10/16 04:54:32;;;;;;;7.60;6.20;;;8.30;76.10;;;;;;4966839;28;20042;-68
2021/10/16 04:56:58;;;;;;;11.60;6.47;;;8.30;76.10;;;;;;4959645;28;20406;-66
2021/10/16 04:59:24;;;;;;;8.73;5.85;;;8.20;76.10;;;;;;4960767;28;20082;-66
2021/10/16 05:01:51;;;;;;;10.18;6.35;;;8.20;76.30;;;;;;4959117;28;20070;-66
2021/10/16 05:04:16;;;;;;;18.33;13.93;;;8.20;76.50;;;;;;4958708;28;20035;-66
2021/10/16 05:06:42;;;;;;;14.27;10.85;;;8.20;76.50;;;;;;4957510;28;21168;-66
2021/10/16 05:09:08;;;;;;;15.13;10.07;;;8.10;76.50;;;;;;4957465;28;20031;-66
2021/10/16 05:11:33;;;;;;;11.57;8.80;;;8.10;76.60;;;;;;4957693;28;20066;-65
2021/10/16 05:13:59;;;;;;;13.15;8.23;;;8.10;76.70;;;;;;4957493;28;20395;-66
2021/10/16 05:16:25;;;;;;;12.98;7.93;;;8.10;77.00;;;;;;4958016;28;20077;-65
2021/10/16 05:18:50;;;;;;;10.45;7.20;;;8.00;77.20;;;;;;4957082;28;20510;-66
2021/10/16 05:21:16;;;;;;;9.27;6.78;;;8.00;77.40;;;;;;4958303;28;20039;-67
2021/10/16 05:23:42;;;;;;;12.07;7.40;;;8.00;77.60;;;;;;4957679;28;20042;-66
2021/10/16 05:26:07;;;;;;;8.85;7.03;;;8.00;77.80;;;;;;4956536;28;20043;-66
2021/10/16 05:28:33;;;;;;;11.88;6.90;;;8.00;78.00;;;;;;4958272;28;20410;-66
2021/10/16 05:30:58;;;;;;;15.57;8.50;;;8.10;78.10;;;;;;4959277;28;20138;-66
2021/10/16 05:33:24;;;;;;;14.55;11.50;;;8.10;78.20;;;;;;4957990;28;20458;-66
2021/10/16 05:35:50;;;;;;;19.65;15.80;;;8.10;78.20;;;;;;4959967;28;20070;-66
2021/10/16 05:38:15;;;;;;;12.85;9.00;;;8.20;78.20;;;;;;4958590;28;20039;-66
2021/10/16 05:40:41;;;;;;;14.05;8.27;;;8.20;78.30;;;;;;4958015;28;20615;-66
2021/10/16 05:43:08;;;;;;;10.40;7.13;;;8.20;78.20;;;;;;4959867;28;20042;-66
2021/10/16 05:45:34;;;;;;;12.52;8.15;;;8.20;78.20;;;;;;4955253;28;20038;-66
2021/10/16 05:47:59;;;;;;;10.15;7.45;;;8.30;78.10;;;;;;4958045;28;20027;-66
2021/10/16 05:50:25;;;;;;;11.10;8.13;;;8.30;78.10;;;;;;4957019;28;20031;-66
2021/10/16 05:52:51;;;;;;;13.52;8.13;;;8.30;78.20;;;;;;4958378;28;20031;-66
2021/10/16 05:55:17;;;;;;;13.98;8.05;;;8.30;78.10;;;;;;4959117;28;20035;-65
2021/10/16 05:57:42;;;;;;;13.55;10.32;;;8.30;78.20;;;;;;4957475;28;20042;-66
2021/10/16 06:00:09;;;;;;;14.27;7.88;;;8.30;78.20;;;;;;4955685;28;20035;-66
2021/10/16 06:02:34;;;;;;;10.45;7.45;;;8.30;78.20;;;;;;4951769;28;20043;-66
2021/10/16 06:05:00;;;;;;;10.38;7.40;;;8.40;78.30;;;;;;4957845;28;20085;-65
2021/10/16 06:07:25;;;;;;;10.85;7.22;;;8.40;78.20;;;;;;4957398;28;20027;-66
2021/10/16 06:09:52;;;;;;;10.55;7.15;;;8.40;78.20;;;;;;4956995;28;20054;-65
2021/10/16 06:12:18;;;;;;;10.20;6.97;;;8.40;78.20;;;;;;4956108;28;20092;-66
2021/10/16 06:14:43;;;;;;;8.30;6.63;;;8.40;78.20;;;;;;4955042;28;20125;-65
2021/10/16 06:17:09;;;;;;;8.45;6.72;;;8.40;78.10;;;;;;4958708;28;20066;-66
2021/10/16 06:19:35;;;;;;;8.50;6.25;;;8.40;78.00;;;;;;4961816;28;20580;-66
2021/10/16 06:22:00;;;;;;;12.00;7.10;;;8.40;78.00;;;;;;4957378;28;20046;-66
2021/10/16 06:24:26;;;;;;;9.32;6.70;;;8.40;78.00;;;;;;4956567;28;20039;-67
2021/10/16 06:26:52;;;;;;;10.77;6.78;;;8.40;78.10;;;;;;4953968;28;20046;-65
2021/10/16 06:29:17;;;;;;;11.82;8.95;;;8.40;78.10;;;;;;4954581;28;20452;-66
2021/10/16 06:31:43;;;;;;;17.40;10.20;;;8.40;78.00;;;;;;4953579;28;20038;-66
2021/10/16 06:34:09;;;;;;;12.88;9.02;;;8.40;78.10;;;;;;4959769;28;20039;-66
2021/10/16 06:36:35;;;;;;;13.20;9.38;;;8.40;78.20;;;;;;4962884;28;20043;-66
2021/10/16 06:39:01;;;;;;;13.63;8.50;;;8.30;78.50;;;;;;4956583;28;20050;-66
2021/10/16 06:41:27;;;;;;;13.98;8.93;;;8.40;78.90;;;;;;4959347;28;20481;-66
2021/10/16 06:43:52;;;;;;;16.13;10.10;;;8.30;79.10;;;;;;4957617;28;20039;-66
2021/10/16 06:46:18;;;;;;;13.68;10.25;;;8.40;79.40;;;;;;4962021;28;21742;-66
2021/10/16 06:48:43;;;;;;;14.82;10.13;;;8.40;79.60;;;;;;4956403;28;20043;-66
2021/10/16 06:51:09;;;;;;;18.05;10.27;;;8.40;79.80;;;;;;4960103;28;20031;-66
2021/10/16 06:53:35;;;;;;;18.95;11.05;;;8.40;79.80;;;;;;4956739;28;20641;-66
2021/10/16 06:56:01;;;;;;;21.13;11.77;;;8.40;80.20;;;;;;4959569;28;20073;-66
2021/10/16 06:58:27;;;;;;;15.90;11.23;;;8.40;80.30;;;;;;4950851;28;20509;-65
2021/10/16 07:00:52;;;;;;;19.02;11.48;;;8.40;80.30;;;;;;4951307;28;20039;-66
2021/10/16 07:03:18;;;;;;;14.85;10.40;;;8.40;80.40;;;;;;4954121;28;20031;-66
2021/10/16 07:05:44;;;;;;;14.18;10.23;;;8.40;80.50;;;;;;4961983;28;20450;-66
2021/10/16 07:08:09;;;;;;;14.00;10.45;;;8.50;80.70;;;;;;4957619;28;20043;-66
2021/10/16 07:10:39;;;;;;;12.40;9.27;;;8.50;80.70;;;;;;4957252;28;20033;-66
2021/10/16 07:13:05;;;;;;;15.68;10.30;;;8.60;80.70;;;;;;4966496;28;20035;-66
2021/10/16 07:15:32;;;;;;;15.77;10.40;;;8.60;80.60;;;;;;4957484;28;20046;-66
2021/10/16 07:17:58;;;;;;;15.32;10.25;;;8.70;80.80;;;;;;4958683;28;20155;-66
2021/10/16 07:20:24;;;;;;;14.27;10.57;;;8.70;80.80;;;;;;4957700;28;20042;-67
2021/10/16 07:22:49;;;;;;;19.55;10.48;;;8.80;80.80;;;;;;4960180;28;20035;-65
2021/10/16 07:25:15;;;;;;;13.52;10.70;;;8.90;80.80;;;;;;4956522;28;20049;-67
2021/10/16 07:27:41;;;;;;;14.77;11.00;;;8.90;80.80;;;;;;4961617;28;20038;-67
2021/10/16 07:30:08;;;;;;;16.40;11.65;;;9.00;80.70;;;;;;4959538;28;20046;-67
2021/10/16 07:32:34;;;;;;;17.67;12.43;;;9.10;80.70;;;;;;4959864;28;20050;-66
2021/10/16 07:35:00;;;;;;;16.85;11.68;;;9.10;80.70;;;;;;4958070;28;20031;-66
2021/10/16 07:37:25;;;;;;;19.48;12.27;;;9.20;80.70;;;;;;4957585;28;20082;-67
2021/10/16 07:39:51;;;;;;;17.92;12.70;;;9.30;80.80;;;;;;4959731;28;20062;-67
2021/10/16 07:42:16;;;;;;;21.08;13.60;;;9.30;80.80;;;;;;4957369;28;20043;-67
2021/10/16 07:44:42;;;;;;;21.45;14.20;;;9.40;80.80;;;;;;4958227;28;20046;-67
2021/10/16 07:47:08;;;;;;;19.33;12.90;;;9.50;81.00;;;;;;4960266;28;20038;-66
2021/10/16 07:49:33;;;;;;;18.27;13.40;;;9.60;81.20;;;;;;4959872;28;20058;-67
2021/10/16 07:51:59;;;;;;;20.73;14.88;;;9.60;81.20;;;;;;4960488;28;20046;-67
2021/10/16 07:54:25;;;;;;;19.35;13.95;;;9.70;81.30;;;;;;4959029;28;20031;-67
2021/10/16 07:56:50;;;;;;;18.30;13.45;;;9.70;81.20;;;;;;4959517;28;20442;-65
2021/10/16 07:59:16;;;;;;;20.30;13.48;;;9.80;81.20;;;;;;4958126;28;20068;-67
2021/10/16 08:01:41;;;;;;;19.23;12.85;;;9.90;81.00;;;;;;4956795;28;20038;-67
2021/10/16 08:04:07;;;;;;;18.67;13.05;;;9.90;80.80;;;;;;4961343;28;20437;-67
2021/10/16 08:06:33;;;;;;;19.45;13.65;;;10.00;80.80;;;;;;4962757;28;20043;-67
2021/10/16 08:09:03;;;;;;;20.27;13.27;;;10.00;80.70;;;;;;4970596;28;20030;-65
2021/10/16 08:11:29;;;;;;;21.38;13.63;;;10.10;80.70;;;;;;4960870;28;20042;-67
2021/10/16 08:13:54;;;;;;;23.70;14.32;;;10.20;80.60;;;;;;4958717;28;20027;-67
2021/10/16 08:16:20;;;;;;;24.23;15.80;;;10.20;80.60;;;;;;4958301;28;20066;-67
2021/10/16 08:18:46;;;;;;;24.05;15.82;;;10.30;80.60;;;;;;4960204;28;20422;-67
2021/10/16 08:21:11;;;;;;;25.52;16.08;;;10.30;80.70;;;;;;4958590;28;20035;-66
2021/10/16 08:23:37;;;;;;;20.13;14.70;;;10.40;80.70;;;;;;4958287;28;20499;-66
2021/10/16 08:26:03;;;;;;;27.20;16.35;;;10.50;80.70;;;;;;4958106;28;20577;-67
2021/10/16 08:28:29;;;;;;;24.20;15.50;;;10.50;80.80;;;;;;4957542;28;20532;-67
2021/10/16 08:30:56;;;;;;;23.52;16.38;;;10.60;80.80;;;;;;4958146;28;20039;-67
2021/10/16 08:33:22;;;;;;;25.25;17.10;;;10.60;80.80;;;;;;4961713;28;20637;-66
2021/10/16 08:35:48;;;;;;;23.60;16.30;;;10.70;80.90;;;;;;4956846;28;20043;-67
2021/10/16 08:38:15;;;;;;;22.55;15.15;;;10.80;80.80;;;;;;4958724;28;20043;-66
2021/10/16 08:40:41;;;;;;;21.23;14.18;;;10.80;80.60;;;;;;4960612;28;20039;-66
2021/10/16 08:43:07;;;;;;;25.92;15.50;;;10.90;80.70;;;;;;4957991;28;20418;-67
2021/10/16 08:45:34;;;;;;;22.83;15.68;;;10.90;80.60;;;;;;4958932;28;20053;-66
2021/10/16 08:48:04;;;;;;;25.52;16.70;;;11.00;80.60;;;;;;4962595;28;20512;-66
2021/10/16 08:50:32;;;;;;;30.73;19.30;;;11.00;80.60;;;;;;4960288;28;20035;-66
2021/10/16 08:52:58;;;;;;;24.08;16.50;;;11.10;80.70;;;;;;4959706;28;20031;-67
2021/10/16 08:55:23;;;;;;;23.35;15.52;;;11.10;80.50;;;;;;4960634;28;20058;-67
2021/10/16 08:57:50;;;;;;;24.85;17.73;;;11.10;80.50;;;;;;4958619;28;20043;-67
2021/10/16 09:00:42;;;;;;;24.27;17.25;;;11.20;80.70;;;;;;4961207;28;20439;-67
2021/10/16 09:03:25;;;;;;;22.30;16.08;;;11.30;80.80;;;;;;4959772;28;20043;-67
2021/10/16 09:06:03;;;;;;;22.35;16.45;;;11.30;80.70;;;;;;4963698;28;20422;-68
2021/10/16 09:08:29;;;;;;;21.77;15.35;;;11.40;80.70;;;;;;4960104;28;20168;-67
2021/10/16 09:11:23;;;;;;;22.38;15.27;;;11.40;80.30;;;;;;4961858;28;20027;-66
2021/10/16 09:14:04;;;;;;;21.60;15.68;;;11.50;80.50;;;;;;4963438;28;20032;-66
2021/10/16 09:16:33;;;;;;;24.05;16.40;;;11.60;80.20;;;;;;4972661;28;20550;-66
2021/10/16 09:19:18;;;;;;;22.75;16.08;;;11.70;80.00;;;;;;4961733;28;20047;-67
2021/10/16 09:21:55;;;;;;;22.80;15.38;;;11.80;80.10;;;;;;4960289;28;20042;-67
2021/10/16 09:24:34;;;;;;;22.90;15.93;;;11.80;80.00;;;;;;4960291;28;20117;-66
2021/10/16 09:27:14;;;;;;;24.38;16.50;;;11.90;79.60;;;;;;4960047;28;20034;-67
2021/10/16 09:29:44;;;;;;;23.20;16.15;;;11.90;79.30;;;;;;4960673;28;20126;-67
2021/10/16 09:32:14;;;;;;;22.90;16.52;;;12.00;79.20;;;;;;4957903;28;20042;-67
2021/10/16 09:34:42;;;;;;;26.70;17.15;;;12.00;79.10;;;;;;4960474;28;20479;-67
2021/10/16 09:37:10;;;;;;;22.05;16.08;;;12.10;79.30;;;;;;4960860;28;20462;-67
2021/10/16 09:39:40;;;;;;;22.60;15.70;;;12.10;79.40;;;;;;4960785;28;20517;-67
2021/10/16 09:42:08;;;;;;;27.08;16.90;;;12.20;79.70;;;;;;4959334;28;20759;-67
2021/10/16 09:44:37;;;;;;;23.08;15.68;;;12.30;79.60;;;;;;4960556;28;20076;-66
2021/10/16 09:47:15;;;;;;;23.75;16.50;;;12.30;79.60;;;;;;4959674;28;20062;-67
2021/10/16 09:49:50;;;;;;;24.58;17.02;;;12.40;79.40;;;;;;4960191;28;20059;-67
2021/10/16 09:52:18;;;;;;;20.77;15.90;;;12.60;79.10;;;;;;4963034;28;20089;-67
2021/10/16 09:54:46;;;;;;;19.98;14.68;;;12.60;78.90;;;;;;4960249;28;20065;-67
2021/10/16 09:57:14;;;;;;;19.95;14.90;;;12.70;78.70;;;;;;4962309;28;20035;-67
2021/10/16 09:59:41;;;;;;;20.55;14.88;;;12.80;78.60;;;;;;4962536;28;20058;-67
2021/10/16 10:02:08;;;;;;;20.13;15.05;;;12.90;78.60;;;;;;4974695;28;20042;-67
2021/10/16 10:04:45;;;;;;;22.02;16.15;;;13.00;78.50;;;;;;4957998;28;20419;-66
2021/10/16 10:07:11;;;;;;;20.17;15.02;;;13.10;77.90;;;;;;4960753;28;20110;-67
2021/10/16 10:09:41;;;;;;;19.88;15.05;;;13.10;77.80;;;;;;4960543;28;20104;-67
2021/10/16 10:12:07;;;;;;;17.65;13.93;;;13.20;77.50;;;;;;4960292;28;20114;-67
2021/10/16 10:14:33;;;;;;;18.35;14.55;;;13.30;77.30;;;;;;4958592;28;20062;-67
2021/10/16 10:17:04;;;;;;;21.70;15.32;;;13.30;76.90;;;;;;4960241;28;20036;-67
2021/10/16 10:19:31;;;;;;;23.88;15.63;;;13.40;76.60;;;;;;4970992;28;20038;-67
2021/10/16 10:21:57;;;;;;;21.52;16.90;;;13.40;76.30;;;;;;4959220;28;20035;-67
2021/10/16 10:24:37;;;;;;;20.42;14.85;;;13.50;76.30;;;;;;4957932;28;20035;-68
2021/10/16 10:27:12;;;;;;;19.77;15.38;;;13.50;75.90;;;;;;4958591;28;20045;-68
2021/10/16 10:29:39;;;;;;;17.92;13.65;;;13.50;76.00;;;;;;4960275;28;20053;-66
2021/10/16 10:32:19;;;;;;;20.65;14.98;;;13.50;76.10;;;;;;4958090;28;20039;-67
2021/10/16 10:35:04;;;;;;;21.13;14.35;;;13.50;76.00;;;;;;4960102;28;20486;-67
2021/10/16 10:37:44;;;;;;;17.23;13.60;;;13.60;75.70;;;;;;4959998;28;20465;-67
2021/10/16 10:40:20;;;;;;;19.67;14.50;;;13.60;76.10;;;;;;4960387;28;20429;-67
2021/10/16 10:42:47;;;;;;;18.40;13.82;;;13.60;76.00;;;;;;4959706;28;20312;-67
2021/10/16 10:45:23;;;;;;;17.15;13.02;;;13.70;76.10;;;;;;4959218;28;20058;-67
2021/10/16 10:48:03;;;;;;;19.10;12.95;;;13.80;76.00;;;;;;4960867;28;20051;-67
2021/10/16 10:50:59;;;;;;;20.05;13.57;;;13.80;75.70;;;;;;4957807;28;20077;-65
2021/10/16 10:53:27;;;;;;;18.13;12.80;;;13.90;73.70;;;;;;4962644;28;20134;-67
2021/10/16 10:56:01;;;;;;;20.85;14.02;;;13.90;74.90;;;;;;4956537;28;20031;-67
2021/10/16 10:59:00;;;;;;;17.95;12.98;;;14.00;74.80;;;;;;4957355;28;20534;-66
2021/10/16 11:01:51;;;;;;;21.60;14.10;;;14.00;74.70;;;;;;4957521;28;20035;-66
2021/10/16 11:04:35;;;;;;;17.40;13.30;;;14.10;74.70;;;;;;4956930;28;20383;-68
2021/10/16 11:07:03;;;;;;;17.25;12.98;;;14.20;73.90;;;;;;4958700;28;20504;-67
2021/10/16 11:09:28;;;;;;;24.33;15.35;;;14.20;74.20;;;;;;4959499;28;20093;-67
2021/10/16 11:11:54;;;;;;;16.35;12.60;;;14.20;73.90;;;;;;4960154;28;20043;-67
2021/10/16 11:14:20;;;;;;;20.50;13.70;;;14.30;73.90;;;;;;4957541;28;20039;-67
2021/10/16 11:16:55;;;;;;;24.80;16.02;;;14.40;73.80;;;;;;4956470;28;20038;-67
2021/10/16 11:19:21;;;;;;;21.23;15.10;;;14.40;73.80;;;;;;4959304;28;20043;-67
2021/10/16 11:21:54;;;;;;;21.15;14.90;;;14.50;73.80;;;;;;4959557;28;20422;-66
2021/10/16 11:24:20;;;;;;;19.98;14.32;;;14.50;73.20;;;;;;4958973;28;20038;-67
2021/10/16 11:27:01;;;;;;;22.02;15.85;;;14.60;72.80;;;;;;4959414;28;20043;-67
2021/10/16 11:29:34;;;;;;;18.48;14.88;;;14.60;72.90;;;;;;4958305;28;20038;-67
2021/10/16 11:32:20;;;;;;;20.98;14.43;;;14.60;72.80;;;;;;4960759;28;20502;-67
2021/10/16 11:34:58;;;;;;;19.08;13.52;;;14.60;71.40;;;;;;4958375;28;20109;-67
2021/10/16 11:37:43;;;;;;;19.67;13.35;;;14.70;71.80;;;;;;4957636;28;20866;-67
2021/10/16 11:40:21;;;;;;;17.58;12.43;;;14.70;71.80;;;;;;4959266;28;20046;-66
2021/10/16 11:42:52;;;;;;;19.73;13.63;;;14.60;71.00;;;;;;4957176;28;20039;-67
2021/10/16 11:45:27;;;;;;;17.58;12.88;;;14.60;71.20;;;;;;4958432;28;20134;-67
2021/10/16 11:47:56;;;;;;;14.25;11.63;;;14.60;71.30;;;;;;4959385;28;20725;-67
2021/10/16 11:50:32;;;;;;;18.10;11.75;;;14.60;71.80;;;;;;4958379;28;20047;-67
2021/10/16 11:53:17;;;;;;;15.55;11.50;;;14.60;71.70;;;;;;4957874;28;20030;-67
2021/10/16 11:55:44;;;;;;;17.83;12.88;;;14.60;72.20;;;;;;4958681;28;20039;-67
2021/10/16 11:58:13;;;;;;;18.15;12.93;;;14.60;72.40;;;;;;4959485;28;20078;-67
2021/10/16 12:00:40;;;;;;;20.73;14.98;;;14.70;72.50;;;;;;4958296;28;20039;-66
2021/10/16 12:03:14;;;;;;;22.23;14.07;;;14.70;72.30;;;;;;4959778;28;20030;-67
2021/10/16 12:05:42;;;;;;;21.77;13.82;;;14.80;72.10;;;;;;4958329;28;20043;-67
2021/10/16 12:08:15;;;;;;;19.55;12.80;;;14.80;72.00;;;;;;4959325;28;20383;-67
2021/10/16 12:10:55;;;;;;;17.80;13.15;;;14.80;71.20;;;;;;4957682;28;20030;-67
2021/10/16 12:13:31;;;;;;;17.55;12.02;;;14.90;71.20;;;;;;4957770;28;20050;-67
2021/10/16 12:15:57;;;;;;;18.27;13.95;;;14.90;71.40;;;;;;4956913;28;20038;-67
2021/10/16 12:18:28;;;;;;;20.75;12.70;;;14.90;70.70;;;;;;4958171;28;20027;-67
2021/10/16 12:20:54;;;;;;;18.70;12.70;;;14.90;70.60;;;;;;4960555;28;20050;-67
2021/10/16 12:23:21;;;;;;;18.48;13.57;;;14.90;70.80;;;;;;4961923;28;20035;-67
2021/10/16 12:25:50;;;;;;;20.40;12.68;;;15.00;70.20;;;;;;4963142;28;20023;-67
2021/10/16 12:28:17;;;;;;;21.00;13.57;;;14.90;69.70;;;;;;4962495;28;20034;-67
2021/10/16 12:31:05;;;;;;;19.50;13.35;;;14.90;69.70;;;;;;4962070;28;20062;-67
2021/10/16 12:33:32;;;;;;;17.40;11.95;;;14.80;68.90;;;;;;4962434;28;20039;-67
2021/10/16 12:36:00;;;;;;;18.13;12.32;;;14.80;70.20;;;;;;4961952;28;20066;-67
2021/10/16 12:38:26;;;;;;;20.88;11.55;;;14.80;70.20;;;;;;4961379;28;20450;-67
2021/10/16 12:40:53;;;;;;;15.73;11.30;;;14.80;70.30;;;;;;4962446;28;20062;-66
2021/10/16 12:43:27;;;;;;;15.45;11.82;;;14.80;70.40;;;;;;4962333;28;20031;-67
2021/10/16 12:45:53;;;;;;;17.05;12.75;;;14.80;69.80;;;;;;4962197;28;20407;-67
2021/10/16 12:48:35;;;;;;;16.52;12.13;;;14.80;69.90;;;;;;4962210;28;20540;-67